createdAt,value
2019-01-30T00:00:43.582Z,22.4
2019-01-30T00:03:49.652Z,22.4
2019-01-30T00:06:55.530Z,22.4
2019-01-30T00:10:01.557Z,22.4
2019-01-30T00:13:07.590Z,22.3
2019-01-30T00:16:13.541Z,22.3
2019-01-30T00:19:19.458Z,22.3
2019-01-30T00:22:25.419Z,22.3
2019-01-30T00:25:31.317Z,22.3
2019-01-30T00:28:37.242Z,22.3
2019-01-30T00:31:43.213Z,22.2
2019-01-30T00:34:49.119Z,22.2
2019-01-30T00:37:55.099Z,22.2
2019-01-30T00:41:03.334Z,22.2
2019-01-30T00:44:09.381Z,22.2
2019-01-30T00:47:17.889Z,22.2
2019-01-30T00:50:23.795Z,22.2
2019-01-30T00:53:29.797Z,22.2
2019-01-30T00:56:35.773Z,22.2
2019-01-30T00:59:41.716Z,22.2
2019-01-30T01:02:47.634Z,22.1
2019-01-30T01:05:53.829Z,22.1
2019-01-30T01:08:59.748Z,22.1
2019-01-30T01:12:05.675Z,22.1
2019-01-30T01:15:11.634Z,22.1
2019-01-30T01:18:17.469Z,22.1
2019-01-30T01:21:25.782Z,22.1
2019-01-30T01:24:31.924Z,22.1
2019-01-30T01:27:38.086Z,22.1
2019-01-30T01:30:47.093Z,22.1
2019-01-30T01:33:53.154Z,22.1
2019-01-30T01:36:59.105Z,22.1
2019-01-30T01:40:05.059Z,22.1
2019-01-30T01:43:10.988Z,22.1
2019-01-30T01:46:17.080Z,22.1
2019-01-30T01:49:22.980Z,22.1
2019-01-30T01:52:29.036Z,22.2
2019-01-30T01:55:34.999Z,22.2
2019-01-30T01:58:40.925Z,22.2
2019-01-30T02:01:46.866Z,22.2
2019-01-30T02:04:52.742Z,22.2
2019-01-30T02:07:58.866Z,22.2
2019-01-30T02:11:04.955Z,22.2
2019-01-30T02:14:10.962Z,22.3
2019-01-30T02:17:16.981Z,22.3
2019-01-30T02:20:22.853Z,22.3
2019-01-30T02:23:28.890Z,22.4
2019-01-30T02:26:34.852Z,22.4
2019-01-30T02:29:40.718Z,22.4
2019-01-30T02:32:46.661Z,22.4
2019-01-30T02:35:52.698Z,22.5
2019-01-30T02:38:58.658Z,22.5
2019-01-30T02:42:04.624Z,22.5
2019-01-30T02:45:10.571Z,22.5
2019-01-30T02:48:16.584Z,22.6
2019-01-30T02:51:22.463Z,22.6
2019-01-30T02:54:31.109Z,22.6
2019-01-30T02:57:37.126Z,22.6
2019-01-30T03:00:43.044Z,22.6
2019-01-30T03:04:01.496Z,22.7
2019-01-30T03:07:07.453Z,22.7
2019-01-30T03:10:13.416Z,22.7
2019-01-30T03:13:19.412Z,22.7
2019-01-30T03:16:25.356Z,22.7
2019-01-30T03:19:31.331Z,22.7
2019-01-30T03:22:37.349Z,22.8
2019-01-30T03:25:43.299Z,22.8
2019-01-30T03:28:49.270Z,22.8
2019-01-30T03:31:55.335Z,22.8
2019-01-30T03:35:01.380Z,22.8
2019-01-30T03:38:07.340Z,22.9
2019-01-30T03:41:13.285Z,22.9
2019-01-30T03:44:19.364Z,22.9
2019-01-30T03:47:25.470Z,23
2019-01-30T03:50:31.398Z,23
2019-01-30T03:53:37.394Z,23.1
2019-01-30T03:56:43.277Z,23.1
2019-01-30T03:59:49.191Z,23.2
2019-01-30T04:02:55.170Z,23.2
2019-01-30T04:06:01.025Z,23.3
2019-01-30T04:09:10.225Z,23.3
2019-01-30T04:12:16.323Z,23.4
2019-01-30T04:15:22.181Z,23.4
2019-01-30T04:18:28.159Z,23.4
2019-01-30T04:21:34.186Z,23.4
2019-01-30T04:24:40.197Z,23.5
2019-01-30T04:27:46.272Z,23.5
2019-01-30T04:30:52.354Z,23.5
2019-01-30T04:33:58.402Z,23.6
2019-01-30T04:37:04.556Z,23.6
2019-01-30T04:40:10.630Z,23.6
2019-01-30T04:43:16.630Z,23.7
2019-01-30T04:46:22.591Z,23.7
2019-01-30T04:49:28.701Z,23.7
2019-01-30T04:52:34.675Z,23.8
2019-01-30T04:55:40.648Z,23.8
2019-01-30T04:58:46.548Z,23.8
2019-01-30T05:01:52.653Z,23.9
2019-01-30T05:04:58.675Z,23.9
2019-01-30T05:08:04.758Z,23.9
2019-01-30T05:11:10.864Z,23.9
2019-01-30T05:14:16.941Z,24
2019-01-30T05:17:22.910Z,24
2019-01-30T05:20:28.853Z,24
2019-01-30T05:23:34.795Z,24
2019-01-30T05:26:40.740Z,24
2019-01-30T05:29:46.660Z,24.1
2019-01-30T05:32:52.641Z,24.1
2019-01-30T05:35:58.775Z,24.1
2019-01-30T05:39:04.789Z,24.1
2019-01-30T05:42:10.794Z,24.1
2019-01-30T05:45:16.751Z,24.2
2019-01-30T05:48:22.822Z,24.2
2019-01-30T05:51:28.831Z,24.2
2019-01-30T05:54:37.509Z,24.2
2019-01-30T05:57:43.724Z,24.3
2019-01-30T06:00:49.703Z,24.3
2019-01-30T06:03:55.653Z,24.3
2019-01-30T06:07:01.636Z,24.3
2019-01-30T06:10:07.489Z,24.4
2019-01-30T06:13:13.422Z,24.3
2019-01-30T06:16:19.523Z,24.4
2019-01-30T06:19:25.401Z,24.4
2019-01-30T06:22:31.336Z,24.4
2019-01-30T06:25:37.298Z,24.5
2019-01-30T06:28:43.209Z,24.6
2019-01-30T06:31:49.175Z,24.7
2019-01-30T06:34:56.690Z,24.7
2019-01-30T06:38:02.859Z,24.8
2019-01-30T06:41:08.838Z,24.9
2019-01-30T06:44:14.939Z,24.9
2019-01-30T06:47:20.939Z,24.9
2019-01-30T06:50:27.022Z,25
2019-01-30T06:53:33.058Z,25
2019-01-30T06:56:38.985Z,25
2019-01-30T06:59:44.821Z,25
2019-01-30T07:02:50.839Z,25
2019-01-30T07:05:56.710Z,25.1
2019-01-30T07:09:02.647Z,25.1
2019-01-30T07:12:08.579Z,25.1
2019-01-30T07:15:14.625Z,25.3
2019-01-30T07:18:20.596Z,25.3
2019-01-30T07:21:26.597Z,25.3
2019-01-30T07:24:32.580Z,25.3
2019-01-30T07:27:38.686Z,25.4
2019-01-30T07:30:44.795Z,25.4
2019-01-30T07:33:50.791Z,25.4
2019-01-30T07:36:56.900Z,25.4
2019-01-30T07:40:03.039Z,25.4
2019-01-30T07:43:09.076Z,25.4
2019-01-30T07:46:15.479Z,25.4
2019-01-30T07:49:21.664Z,25.4
2019-01-30T07:52:27.827Z,25.4
2019-01-30T07:55:36.621Z,25.6
2019-01-30T07:58:42.647Z,25.5
2019-01-30T08:01:48.662Z,25.5
2019-01-30T08:04:54.595Z,25.5
2019-01-30T08:08:00.689Z,25.6
2019-01-30T08:11:07.362Z,25.6
2019-01-30T08:14:13.550Z,25.6
2019-01-30T08:17:21.055Z,25.6
2019-01-30T08:20:27.120Z,25.7
2019-01-30T08:23:33.202Z,25.7
2019-01-30T08:26:40.865Z,25.8
2019-01-30T08:29:48.200Z,25.8
2019-01-30T08:33:03.994Z,25.9
2019-01-30T08:36:12.162Z,25.9
2019-01-30T08:39:18.539Z,25.9
2019-01-30T08:42:24.562Z,26
2019-01-30T08:45:30.463Z,25.9
2019-01-30T08:48:40.392Z,26
2019-01-30T08:51:46.499Z,26
2019-01-30T08:54:52.526Z,26
2019-01-30T08:57:59.443Z,26
2019-01-30T09:01:05.585Z,26.1
2019-01-30T09:04:14.738Z,26.1
2019-01-30T09:07:21.511Z,26.2
2019-01-30T09:10:27.449Z,26.2
2019-01-30T09:13:33.690Z,26.2
2019-01-30T09:16:41.077Z,26.2
2019-01-30T09:19:47.134Z,26.3
2019-01-30T09:22:53.117Z,26.3
2019-01-30T09:25:59.653Z,26.2
2019-01-30T09:29:05.581Z,26.1
2019-01-30T09:32:14.366Z,26.2
2019-01-30T09:35:20.341Z,26.1
2019-01-30T09:38:26.488Z,26.1
2019-01-30T09:41:32.639Z,26.3
2019-01-30T09:44:38.793Z,26.3
2019-01-30T09:47:44.728Z,26.3
2019-01-30T09:50:53.604Z,26.3
2019-01-30T09:53:59.774Z,26.2
2019-01-30T09:57:05.852Z,26.2
2019-01-30T10:00:11.785Z,26.3
2019-01-30T10:03:17.792Z,26.2
2019-01-30T10:06:23.935Z,26.2
2019-01-30T10:09:29.867Z,26.1
2019-01-30T10:12:38.406Z,26.2
2019-01-30T10:15:44.332Z,26.2
2019-01-30T10:18:50.381Z,26.2
2019-01-30T10:21:56.351Z,26.3
2019-01-30T10:25:02.330Z,26.2
2019-01-30T10:28:16.118Z,26.3
2019-01-30T10:31:22.830Z,26.3
2019-01-30T10:34:28.799Z,26.4
2019-01-30T10:37:34.716Z,26.4
2019-01-30T10:40:40.742Z,26.4
2019-01-30T10:43:46.693Z,26.4
2019-01-30T10:46:52.676Z,26.4
2019-01-30T10:50:01.619Z,26.4
2019-01-30T10:53:07.826Z,26.4
2019-01-30T10:56:16.480Z,26.4
2019-01-30T10:59:22.922Z,26.4
2019-01-30T11:02:34.856Z,26.4
2019-01-30T11:05:40.760Z,26.4
2019-01-30T11:08:54.814Z,26.4
2019-01-30T11:12:02.686Z,26.4
2019-01-30T11:15:10.562Z,26.4
2019-01-30T11:18:16.699Z,26.4
2019-01-30T11:21:25.327Z,26.4
2019-01-30T11:24:32.499Z,26.4
2019-01-30T11:27:38.620Z,26.3
2019-01-30T11:30:44.734Z,26.4
2019-01-30T11:33:50.890Z,26.4
2019-01-30T11:37:09.911Z,26.3
2019-01-30T11:40:15.850Z,26.4
2019-01-30T11:43:21.787Z,26.4
2019-01-30T11:46:27.771Z,26.3
2019-01-30T11:49:34.750Z,26.4
2019-01-30T11:52:40.782Z,26.4
2019-01-30T11:55:46.717Z,26.4
2019-01-30T11:58:55.369Z,26.4
2019-01-30T12:02:01.477Z,26.3
2019-01-30T12:05:07.408Z,26.3
2019-01-30T12:08:13.514Z,26.4
2019-01-30T12:11:19.521Z,26.4
2019-01-30T12:14:25.490Z,26.4
2019-01-30T12:17:31.696Z,26.4
2019-01-30T12:20:37.858Z,26.4
2019-01-30T12:23:44.841Z,26.4
2019-01-30T12:26:50.808Z,26.4
2019-01-30T12:29:56.727Z,26.4
2019-01-30T12:33:02.759Z,26.4
2019-01-30T12:36:11.778Z,26.4
2019-01-30T12:39:17.856Z,26.4
2019-01-30T12:42:23.862Z,26.3
2019-01-30T12:45:29.804Z,26.3
2019-01-30T12:48:35.777Z,26.3
2019-01-30T12:51:41.937Z,26.3
2019-01-30T12:54:47.966Z,26.3
2019-01-30T12:57:54.110Z,26.3
2019-01-30T13:01:03.134Z,26.3
2019-01-30T13:04:09.191Z,26.3
2019-01-30T13:07:15.216Z,26.4
2019-01-30T13:10:21.313Z,26.2
2019-01-30T13:13:27.256Z,26.3
2019-01-30T13:16:33.451Z,26.3
2019-01-30T13:19:39.380Z,26.3
2019-01-30T13:22:45.309Z,26.2
2019-01-30T13:25:51.184Z,26.3
2019-01-30T13:28:57.108Z,26.3
2019-01-30T13:32:03.138Z,26.3
2019-01-30T13:35:09.148Z,26.3
2019-01-30T13:38:15.108Z,26.3
2019-01-30T13:41:21.156Z,26.3
2019-01-30T13:44:27.056Z,26.4
2019-01-30T13:47:33.107Z,26.3
2019-01-30T13:50:39.159Z,26.2
2019-01-30T13:53:45.347Z,26.5
2019-01-30T13:56:51.475Z,26.5
2019-01-30T13:59:57.807Z,26.4
2019-01-30T14:03:08.031Z,26.5
2019-01-30T14:06:15.149Z,26.4
2019-01-30T14:09:21.282Z,26.4
2019-01-30T14:12:27.363Z,26.4
2019-01-30T14:15:33.547Z,26.5
2019-01-30T14:18:39.615Z,26.4
2019-01-30T14:21:45.695Z,26.5
2019-01-30T14:24:51.742Z,26.4
2019-01-30T14:27:57.815Z,26.4
2019-01-30T14:31:03.828Z,26.5
2019-01-30T14:34:10.050Z,26.5
2019-01-30T14:37:16.377Z,26.4
2019-01-30T14:40:22.382Z,26.4
2019-01-30T14:43:29.702Z,26.4
2019-01-30T14:46:35.803Z,26.4
2019-01-30T14:49:41.940Z,26.3
2019-01-30T14:52:48.062Z,26.2
2019-01-30T14:55:54.175Z,26.3
2019-01-30T14:59:00.310Z,26.3
2019-01-30T15:02:06.371Z,26.2
2019-01-30T15:05:21.759Z,26.2
2019-01-30T15:08:28.487Z,26.2
2019-01-30T15:11:34.622Z,26.2
2019-01-30T15:14:40.579Z,26.2
2019-01-30T15:17:46.771Z,26.1
2019-01-30T15:20:52.785Z,26.1
2019-01-30T15:23:58.890Z,26.1
2019-01-30T15:27:05.002Z,26.1
2019-01-30T15:30:11.247Z,26.1
2019-01-30T15:33:17.223Z,26
2019-01-30T15:36:24.356Z,26
2019-01-30T15:39:30.290Z,26
2019-01-30T15:42:36.307Z,26
2019-01-30T15:45:53.458Z,26
2019-01-30T15:48:59.528Z,26
2019-01-30T15:52:08.795Z,26
2019-01-30T15:55:14.841Z,25.9
2019-01-30T15:58:20.926Z,25.9
2019-01-30T16:01:26.969Z,25.9
2019-01-30T16:04:32.887Z,25.9
2019-01-30T16:07:39.035Z,25.9
2019-01-30T16:10:47.828Z,25.9
2019-01-30T16:13:53.766Z,25.9
2019-01-30T16:16:59.872Z,25.8
2019-01-30T16:20:05.888Z,25.9
2019-01-30T16:23:12.048Z,25.9
2019-01-30T16:26:17.936Z,25.9
2019-01-30T16:29:23.890Z,25.9
2019-01-30T16:32:29.751Z,25.9
2019-01-30T16:35:35.688Z,25.9
2019-01-30T16:38:41.606Z,25.8
2019-01-30T16:41:47.610Z,25.8
2019-01-30T16:44:53.722Z,25.8
2019-01-30T16:47:59.769Z,25.8
2019-01-30T16:51:05.679Z,25.8
2019-01-30T16:54:11.654Z,25.7
2019-01-30T16:57:17.587Z,25.8
2019-01-30T17:00:23.710Z,25.8
2019-01-30T17:03:29.713Z,25.8
2019-01-30T17:06:35.585Z,25.7
2019-01-30T17:09:44.537Z,25.7
2019-01-30T17:12:50.472Z,25.7
2019-01-30T17:15:59.210Z,25.7
2019-01-30T17:19:05.214Z,25.7
2019-01-30T17:22:11.107Z,25.6
2019-01-30T17:25:17.121Z,25.6
2019-01-30T17:28:23.169Z,25.7
2019-01-30T17:31:29.247Z,25.6
2019-01-30T17:34:35.159Z,25.6
2019-01-30T17:37:41.113Z,25.6
2019-01-30T17:40:47.209Z,25.6
2019-01-30T17:43:53.247Z,25.6
2019-01-30T17:46:59.203Z,25.6
2019-01-30T17:50:05.138Z,25.6
2019-01-30T17:53:11.112Z,25.5
2019-01-30T17:56:17.114Z,25.5
2019-01-30T17:59:23.163Z,25.5
2019-01-30T18:02:29.255Z,25.5
2019-01-30T18:05:35.371Z,25.5
2019-01-30T18:08:41.338Z,25.5
2019-01-30T18:11:47.331Z,25.4
2019-01-30T18:14:53.344Z,25.4
2019-01-30T18:17:59.371Z,25.4
2019-01-30T18:21:05.264Z,25.4
2019-01-30T18:24:11.184Z,25.3
2019-01-30T18:27:17.248Z,25.2
2019-01-30T18:30:23.197Z,25.2
2019-01-30T18:33:29.163Z,25.2
2019-01-30T18:36:40.879Z,25.1
2019-01-30T18:39:49.649Z,25
2019-01-30T18:42:55.747Z,25
2019-01-30T18:46:01.746Z,24.9
2019-01-30T18:49:07.655Z,24.9
2019-01-30T18:52:13.736Z,24.9
2019-01-30T18:55:22.654Z,24.8
2019-01-30T18:58:28.624Z,24.8
2019-01-30T19:01:34.596Z,24.7
2019-01-30T19:04:40.496Z,24.7
2019-01-30T19:07:46.585Z,24.6
2019-01-30T19:10:52.559Z,24.6
2019-01-30T19:13:58.777Z,24.6
2019-01-30T19:17:04.923Z,24.5
2019-01-30T19:20:10.837Z,24.5
2019-01-30T19:23:16.802Z,24.5
2019-01-30T19:26:22.749Z,24.5
2019-01-30T19:29:28.730Z,24.4
2019-01-30T19:32:34.672Z,24.4
2019-01-30T19:35:40.789Z,24.4
2019-01-30T19:38:46.815Z,24.3
2019-01-30T19:41:52.759Z,24.3
2019-01-30T19:44:58.735Z,24.3
2019-01-30T19:48:04.633Z,24.3
2019-01-30T19:51:10.571Z,24.2
2019-01-30T19:54:16.593Z,24.2
2019-01-30T19:57:22.560Z,24.2
2019-01-30T20:00:28.637Z,24.1
2019-01-30T20:03:34.687Z,24.1
2019-01-30T20:06:40.616Z,24.1
2019-01-30T20:09:46.564Z,24.1
2019-01-30T20:12:52.705Z,24
2019-01-30T20:15:58.642Z,24
2019-01-30T20:19:04.575Z,24
2019-01-30T20:22:10.619Z,24
2019-01-30T20:25:16.684Z,24
2019-01-30T20:28:22.623Z,23.9
2019-01-30T20:31:28.536Z,23.9
2019-01-30T20:34:34.529Z,23.9
2019-01-30T20:37:40.445Z,23.9
2019-01-30T20:40:46.446Z,23.9
2019-01-30T20:43:52.359Z,23.8
2019-01-30T20:46:58.410Z,23.8
2019-01-30T20:50:04.386Z,23.8
2019-01-30T20:53:10.331Z,23.8
2019-01-30T20:56:16.477Z,23.8
2019-01-30T20:59:22.592Z,23.7
2019-01-30T21:02:28.566Z,23.7
2019-01-30T21:05:34.531Z,23.7
2019-01-30T21:08:40.446Z,23.7
2019-01-30T21:11:46.426Z,23.7
2019-01-30T21:14:55.078Z,23.7
2019-01-30T21:18:00.938Z,23.6
2019-01-30T21:21:07.022Z,23.6
2019-01-30T21:24:15.854Z,23.6
2019-01-30T21:27:22.062Z,23.6
2019-01-30T21:30:27.994Z,23.6
2019-01-30T21:33:33.914Z,23.5
2019-01-30T21:36:39.946Z,23.5
2019-01-30T21:39:45.829Z,23.5
2019-01-30T21:42:51.770Z,23.5
2019-01-30T21:45:57.751Z,23.5
2019-01-30T21:49:03.600Z,23.5
2019-01-30T21:52:09.535Z,23.5
2019-01-30T21:55:15.574Z,23.5
2019-01-30T21:58:21.521Z,23.5
2019-01-30T22:01:27.503Z,23.5
2019-01-30T22:04:33.459Z,23.5
2019-01-30T22:07:39.459Z,23.4
2019-01-30T22:10:45.522Z,23.4
2019-01-30T22:13:51.578Z,23.4
2019-01-30T22:17:00.239Z,23.4
2019-01-30T22:20:06.169Z,23.3
2019-01-30T22:23:12.136Z,23.3
2019-01-30T22:26:18.144Z,23.3
2019-01-30T22:29:24.096Z,23.3
2019-01-30T22:32:30.156Z,23.3
2019-01-30T22:35:36.129Z,23.2
2019-01-30T22:38:42.031Z,23.2
2019-01-30T22:41:47.977Z,23.2
2019-01-30T22:44:53.890Z,23.2
2019-01-30T22:47:59.881Z,23.1
2019-01-30T22:51:05.917Z,23.2
2019-01-30T22:54:11.911Z,23.1
2019-01-30T22:57:17.828Z,23.1
2019-01-30T23:00:23.879Z,23.1
2019-01-30T23:03:32.012Z,23
2019-01-30T23:06:38.101Z,23
2019-01-30T23:09:44.147Z,23
2019-01-30T23:12:50.125Z,23
2019-01-30T23:15:56.126Z,23
2019-01-30T23:19:02.052Z,23
2019-01-30T23:22:07.929Z,23
2019-01-30T23:25:13.846Z,22.9
2019-01-30T23:28:22.606Z,22.9
2019-01-30T23:31:28.577Z,22.9
2019-01-30T23:34:34.756Z,22.9
2019-01-30T23:37:40.676Z,22.9
2019-01-30T23:40:46.732Z,22.9
2019-01-30T23:43:52.611Z,22.9
2019-01-30T23:46:58.590Z,22.9
2019-01-30T23:50:04.605Z,22.9
2019-01-30T23:53:10.559Z,22.8
2019-01-30T23:56:16.550Z,22.8
2019-01-30T23:59:22.484Z,22.8
